X  CloseMetar Aviation Weather Data     CYYC Calgary International

Temperature

10°C Temperature

-2°C Dewpoint

43% Humidity



Wind

10 KM/H

 6 MPH

 3 M/S

 5 KTS



350°
Due North
Current Conditions

Partly Cloudy Partly Cloudy
Pressure 1007.42 (hPa) - 29.75 (in)
Visibility 15 (mi) - 24.1 (km)
Airport
Airport-code CYYC

Location Calgary International 4 (km)

Metar:
CYYC 161000Z 35005G17KT 280V010 15SM FEW130 10/M02 A2975 RMK AC1 AC TR SLP099 DENSITY ALT 4100FT

Time: 16-10-2019 04:00